createdAt,value
2023-01-23T00:02:05.584Z,101964.75
2023-01-23T00:04:34.316Z,101970.34
2023-01-23T00:07:04.603Z,101968.09
2023-01-23T00:09:33.700Z,101970.97
2023-01-23T00:12:02.674Z,101974.25
2023-01-23T00:14:31.633Z,101963.56
2023-01-23T00:17:02.122Z,101975.63
2023-01-23T00:19:30.435Z,101984.00
2023-01-23T00:22:01.065Z,101982.66
2023-01-23T00:24:30.101Z,101981.38
2023-01-23T00:26:59.047Z,101983.50
2023-01-23T00:29:27.996Z,101982.38
2023-01-23T00:31:56.630Z,101978.28
2023-01-23T00:34:27.045Z,101977.81
2023-01-23T00:36:56.035Z,101977.94
2023-01-23T00:39:25.666Z,101977.69
2023-01-23T00:41:54.661Z,101972.34
2023-01-23T00:44:23.849Z,101981.81
2023-01-23T00:46:52.436Z,101991.16
2023-01-23T00:49:24.457Z,101985.06
2023-01-23T00:51:56.496Z,101985.91
2023-01-23T00:54:26.071Z,101992.66
2023-01-23T00:56:55.081Z,101995.41
2023-01-23T00:59:24.727Z,102004.78
2023-01-23T01:01:53.426Z,101992.19
2023-01-23T01:04:22.489Z,102001.28
2023-01-23T01:06:51.481Z,102003.91
2023-01-23T01:09:22.887Z,102004.56
2023-01-23T01:11:51.980Z,101998.38
2023-01-23T01:14:20.929Z,102007.72
2023-01-23T01:16:49.671Z,102008.19
2023-01-23T01:19:19.274Z,102007.66
2023-01-23T01:21:48.574Z,102010.28
2023-01-23T01:24:17.512Z,102013.34
2023-01-23T01:26:47.914Z,102010.28
2023-01-23T01:29:17.076Z,102002.59
2023-01-23T01:31:45.848Z,102006.53
2023-01-23T01:34:15.105Z,102018.56
2023-01-23T01:36:44.332Z,102025.16
2023-01-23T01:39:13.300Z,102029.38
2023-01-23T01:41:43.934Z,102022.59
2023-01-23T01:44:17.613Z,102019.16
2023-01-23T01:46:47.651Z,102021.00
2023-01-23T01:49:20.081Z,102020.09
2023-01-23T01:51:52.347Z,102023.84
2023-01-23T01:54:25.038Z,102028.94
2023-01-23T01:56:57.095Z,102027.66
2023-01-23T01:59:29.868Z,102030.97
2023-01-23T02:02:05.247Z,102031.31
2023-01-23T02:04:36.425Z,102036.09
2023-01-23T02:07:12.148Z,102035.13
2023-01-23T02:09:41.524Z,102034.66
2023-01-23T02:12:10.762Z,102043.41
2023-01-23T02:14:43.661Z,102047.69
2023-01-23T02:17:12.754Z,102049.16
2023-01-23T02:19:46.784Z,102045.09
2023-01-23T02:22:25.128Z,102048.84
2023-01-23T02:25:03.287Z,102050.44
2023-01-23T02:27:33.817Z,102047.16
2023-01-23T02:30:06.221Z,102045.81
2023-01-23T02:32:36.353Z,102045.56
2023-01-23T02:35:07.321Z,102051.75
2023-01-23T02:37:36.579Z,102046.09
2023-01-23T02:40:06.775Z,102057.03
2023-01-23T02:42:40.859Z,102047.50
2023-01-23T02:45:11.206Z,102057.06
2023-01-23T02:47:40.220Z,102048.34
2023-01-23T02:50:10.209Z,102049.69
2023-01-23T02:52:38.822Z,102046.88
2023-01-23T02:55:08.539Z,102050.63
2023-01-23T02:57:39.034Z,102047.56
2023-01-23T03:00:17.026Z,102047.00
2023-01-23T03:02:47.117Z,102045.56
2023-01-23T03:05:16.722Z,102046.22
2023-01-23T03:07:46.071Z,102056.59
2023-01-23T03:10:15.115Z,102055.34
2023-01-23T03:12:48.488Z,102062.66
2023-01-23T03:15:17.773Z,102063.00
2023-01-23T03:17:48.281Z,102060.19
2023-01-23T03:20:20.151Z,102064.78
2023-01-23T03:22:48.920Z,102066.50
2023-01-23T03:25:18.098Z,102063.78
2023-01-23T03:27:48.613Z,102061.41
2023-01-23T03:30:20.471Z,102063.00
2023-01-23T03:32:50.433Z,102065.44
2023-01-23T03:35:21.506Z,102061.47
2023-01-23T03:37:53.463Z,102064.00
2023-01-23T03:40:42.143Z,102069.34
2023-01-23T03:43:14.591Z,102070.44
2023-01-23T03:45:49.347Z,102074.75
2023-01-23T03:48:18.482Z,102082.59
2023-01-23T03:50:47.557Z,102086.19
2023-01-23T03:53:16.557Z,102081.78
2023-01-23T03:55:48.205Z,102092.03
2023-01-23T03:58:19.415Z,102088.28
2023-01-23T04:00:49.880Z,102092.81
2023-01-23T04:03:19.759Z,102089.97
2023-01-23T04:05:49.181Z,102087.63
2023-01-23T04:08:19.745Z,102083.53
2023-01-23T04:10:49.329Z,102089.53
2023-01-23T04:13:20.398Z,102082.50
2023-01-23T04:15:49.686Z,102085.06
2023-01-23T04:18:18.788Z,102082.59
2023-01-23T04:20:47.838Z,102092.31
2023-01-23T04:23:16.910Z,102099.41
2023-01-23T04:25:45.558Z,102089.59
2023-01-23T04:28:16.022Z,102095.00
2023-01-23T04:30:47.772Z,102112.06
2023-01-23T04:33:22.984Z,102115.13
2023-01-23T04:35:54.285Z,102110.34
2023-01-23T04:38:23.695Z,102107.50
2023-01-23T04:40:53.407Z,102108.72
2023-01-23T04:43:22.550Z,102102.19
2023-01-23T04:45:56.640Z,102110.06
2023-01-23T04:48:48.017Z,102116.56
2023-01-23T04:51:19.132Z,102106.44
2023-01-23T04:53:48.248Z,102120.78
2023-01-23T04:56:17.296Z,102116.78
2023-01-23T04:58:45.956Z,102106.78
2023-01-23T05:01:24.750Z,102109.59
2023-01-23T05:03:59.643Z,102113.53
2023-01-23T05:06:29.274Z,102113.75
2023-01-23T05:09:00.190Z,102115.84
2023-01-23T05:11:37.577Z,102125.41
2023-01-23T05:14:06.936Z,102115.69
2023-01-23T05:16:37.600Z,102118.09
2023-01-23T05:19:27.039Z,102114.41
2023-01-23T05:21:57.037Z,102122.22
2023-01-23T05:24:27.384Z,102130.53
2023-01-23T05:26:58.800Z,102116.13
2023-01-23T05:29:31.559Z,102127.00
2023-01-23T05:32:09.963Z,102130.91
2023-01-23T05:34:39.170Z,102135.44
2023-01-23T05:37:26.001Z,102131.09
2023-01-23T05:40:02.520Z,102134.88
2023-01-23T05:42:51.975Z,102135.44
2023-01-23T05:45:44.339Z,102142.25
2023-01-23T05:48:24.526Z,102145.91
2023-01-23T05:50:53.607Z,102142.84
2023-01-23T05:53:23.627Z,102155.38
2023-01-23T05:55:52.265Z,102166.19
2023-01-23T05:58:22.248Z,102171.47
2023-01-23T06:01:00.204Z,102171.88
2023-01-23T06:03:56.372Z,102180.16
2023-01-23T06:06:35.676Z,102175.44
2023-01-23T06:09:04.876Z,102183.38
2023-01-23T06:11:34.564Z,102183.53
2023-01-23T06:14:03.782Z,102188.91
2023-01-23T06:16:32.476Z,102192.47
2023-01-23T06:19:03.240Z,102192.31
2023-01-23T06:21:34.926Z,102188.84
2023-01-23T06:24:04.653Z,102191.53
2023-01-23T06:26:33.757Z,102192.91
2023-01-23T06:29:02.720Z,102194.94
2023-01-23T06:31:32.753Z,102199.72
2023-01-23T06:34:05.434Z,102203.97
2023-01-23T06:36:41.801Z,102215.41
2023-01-23T06:39:15.286Z,102226.53
2023-01-23T06:41:45.075Z,102234.28
2023-01-23T06:44:19.646Z,102238.25
2023-01-23T06:46:48.518Z,102242.16
2023-01-23T06:49:19.100Z,102243.59
2023-01-23T06:51:49.158Z,102251.56
2023-01-23T06:54:18.414Z,102256.00
2023-01-23T06:56:49.421Z,102260.97
2023-01-23T06:59:18.697Z,102253.66
2023-01-23T07:01:48.312Z,102255.69
2023-01-23T07:04:18.830Z,102256.41
2023-01-23T07:06:50.717Z,102255.09
2023-01-23T07:09:21.448Z,102259.69
2023-01-23T07:12:06.727Z,102260.13
2023-01-23T07:14:36.372Z,102254.84
2023-01-23T07:17:05.596Z,102258.47
2023-01-23T07:19:35.854Z,102260.13
2023-01-23T07:22:08.818Z,102268.38
2023-01-23T07:24:37.856Z,102265.88
2023-01-23T07:27:07.238Z,102273.53
2023-01-23T07:29:36.340Z,102274.31
2023-01-23T07:32:05.757Z,102277.72
2023-01-23T07:34:37.094Z,102280.72
2023-01-23T07:37:06.283Z,102269.63
2023-01-23T07:39:35.313Z,102272.50
2023-01-23T07:42:04.368Z,102267.16
2023-01-23T07:44:33.638Z,102271.78
2023-01-23T07:47:02.808Z,102267.28
2023-01-23T07:49:31.454Z,102269.38
2023-01-23T07:52:02.021Z,102272.44
2023-01-23T07:54:31.417Z,102270.31
2023-01-23T07:57:00.520Z,102274.75
2023-01-23T07:59:29.673Z,102277.22
2023-01-23T08:01:58.711Z,102285.75
2023-01-23T08:04:28.113Z,102289.41
2023-01-23T08:06:57.293Z,102294.63
2023-01-23T08:09:27.854Z,102303.13
2023-01-23T08:11:56.912Z,102297.16
2023-01-23T08:14:26.137Z,102299.63
2023-01-23T08:16:55.253Z,102296.19
2023-01-23T08:19:25.471Z,102303.81
2023-01-23T08:21:54.820Z,102298.88
2023-01-23T08:24:23.886Z,102294.09
2023-01-23T08:26:54.350Z,102301.25
2023-01-23T08:29:23.559Z,102302.00
2023-01-23T08:31:55.046Z,102307.13
2023-01-23T08:34:24.418Z,102311.50
2023-01-23T08:36:53.606Z,102322.19
2023-01-23T08:39:22.588Z,102322.09
2023-01-23T08:41:51.737Z,102320.00
2023-01-23T08:44:22.327Z,102329.88
2023-01-23T08:46:50.984Z,102328.84
2023-01-23T08:49:20.521Z,102334.63
2023-01-23T08:51:49.659Z,102340.53
2023-01-23T08:54:18.736Z,102339.19
2023-01-23T08:56:47.853Z,102343.84
2023-01-23T08:59:16.842Z,102338.97
2023-01-23T09:01:48.182Z,102332.19
2023-01-23T09:04:17.674Z,102341.28
2023-01-23T09:06:46.779Z,102334.47
2023-01-23T09:09:15.877Z,102328.34
2023-01-23T09:11:46.828Z,102329.19
2023-01-23T09:14:16.492Z,102328.00
2023-01-23T09:16:46.620Z,102330.38
2023-01-23T09:19:16.042Z,102323.13
2023-01-23T09:21:46.339Z,102321.28
2023-01-23T09:24:15.051Z,102324.25
2023-01-23T09:26:44.158Z,102316.34
2023-01-23T09:29:13.303Z,102323.41
2023-01-23T09:31:42.496Z,102317.63
2023-01-23T09:34:13.326Z,102312.25
2023-01-23T09:36:43.676Z,102316.94
2023-01-23T09:39:13.183Z,102316.75
2023-01-23T09:41:42.927Z,102312.25
2023-01-23T09:44:15.681Z,102312.25
2023-01-23T09:46:47.945Z,102312.88
2023-01-23T09:49:24.109Z,102307.19
2023-01-23T09:51:57.195Z,102308.81
2023-01-23T09:54:35.150Z,102303.91
2023-01-23T09:57:08.081Z,102303.53
2023-01-23T09:59:53.658Z,102310.38
2023-01-23T10:02:26.744Z,102314.63
2023-01-23T10:04:59.373Z,102316.03
2023-01-23T10:07:42.613Z,102315.56
2023-01-23T10:10:44.369Z,102308.97
2023-01-23T10:13:17.440Z,102319.53
2023-01-23T10:16:04.208Z,102316.72
2023-01-23T10:18:37.156Z,102313.72
2023-01-23T10:21:14.581Z,102316.41
2023-01-23T10:23:53.159Z,102318.19
2023-01-23T10:26:24.089Z,102304.56
2023-01-23T10:28:54.971Z,102300.66
2023-01-23T10:31:35.414Z,102314.59
2023-01-23T10:34:12.240Z,102318.75
2023-01-23T10:36:54.761Z,102314.78
2023-01-23T10:39:28.758Z,102316.44
2023-01-23T10:42:02.487Z,102317.59
2023-01-23T10:44:32.038Z,102317.97
2023-01-23T10:47:03.875Z,102318.47
2023-01-23T10:49:35.325Z,102309.84
2023-01-23T10:52:06.450Z,102309.91
2023-01-23T10:54:47.282Z,102308.50
2023-01-23T10:57:24.164Z,102301.28
2023-01-23T10:59:56.866Z,102311.34
2023-01-23T11:02:29.679Z,102303.16
2023-01-23T11:04:59.326Z,102314.72
2023-01-23T11:07:31.482Z,102305.88
2023-01-23T11:10:02.168Z,102312.84
2023-01-23T11:12:32.337Z,102313.69
2023-01-23T11:15:28.878Z,102309.97
2023-01-23T11:18:00.059Z,102313.53
2023-01-23T11:20:31.120Z,102309.84
2023-01-23T11:23:07.229Z,102315.03
2023-01-23T11:25:38.338Z,102316.31
2023-01-23T11:28:23.826Z,102309.06
2023-01-23T11:31:03.779Z,102306.34
2023-01-23T11:33:44.473Z,102304.03
2023-01-23T11:36:33.287Z,102292.97
2023-01-23T11:39:13.428Z,102298.44
2023-01-23T11:41:42.552Z,102292.56
2023-01-23T11:44:18.587Z,102290.63
2023-01-23T11:47:02.983Z,102289.50
2023-01-23T11:49:54.715Z,102283.63
2023-01-23T11:52:31.980Z,102278.38
2023-01-23T11:55:29.548Z,102274.94
2023-01-23T11:58:09.790Z,102270.50
2023-01-23T12:00:39.531Z,102277.78
2023-01-23T12:03:38.049Z,102274.91
2023-01-23T12:06:24.736Z,102279.03
2023-01-23T12:09:00.505Z,102283.19
2023-01-23T12:11:34.985Z,102283.41
2023-01-23T12:14:06.344Z,102283.38
2023-01-23T12:16:48.279Z,102283.31
2023-01-23T12:19:27.532Z,102284.06
2023-01-23T12:22:02.233Z,102292.28
2023-01-23T12:24:42.050Z,102301.03
2023-01-23T12:27:19.340Z,102297.31
2023-01-23T12:30:13.621Z,102299.41
2023-01-23T12:32:52.740Z,102299.81
2023-01-23T12:35:32.039Z,102296.78
2023-01-23T12:38:14.346Z,102295.94
2023-01-23T12:40:46.452Z,102296.28
2023-01-23T12:43:19.658Z,102296.59
2023-01-23T12:45:52.634Z,102298.66
2023-01-23T12:48:28.256Z,102294.47
2023-01-23T12:50:59.745Z,102294.88
2023-01-23T12:53:30.600Z,102303.47
2023-01-23T12:56:03.253Z,102295.94
2023-01-23T12:58:36.440Z,102301.44
2023-01-23T13:01:27.415Z,102300.91
2023-01-23T13:04:20.159Z,102312.66
2023-01-23T13:07:09.310Z,102320.25
2023-01-23T13:09:49.516Z,102317.44
2023-01-23T13:12:22.883Z,102328.06
2023-01-23T13:15:12.982Z,102320.59
2023-01-23T13:17:46.001Z,102322.63
2023-01-23T13:20:46.199Z,102324.22
2023-01-23T13:23:28.245Z,102324.00
2023-01-23T13:26:29.071Z,102331.31
2023-01-23T13:29:04.184Z,102332.25
2023-01-23T13:31:45.455Z,102329.56
2023-01-23T13:34:36.176Z,102331.41
2023-01-23T13:37:33.639Z,102330.06
2023-01-23T13:40:16.603Z,102329.72
2023-01-23T13:42:48.694Z,102333.03
2023-01-23T13:45:31.722Z,102335.06
2023-01-23T14:20:43.733Z,102348.28
2023-01-23T14:23:29.175Z,102348.22
2023-01-23T14:26:00.419Z,102354.25
2023-01-23T14:28:33.581Z,102353.03
2023-01-23T14:31:07.901Z,102346.47
2023-01-23T14:34:01.924Z,102343.59
2023-01-23T14:37:04.270Z,102346.56
2023-01-23T14:39:52.841Z,102348.94
2023-01-23T14:43:14.840Z,102353.50
2023-01-23T14:45:56.346Z,102352.91
2023-01-23T14:48:35.599Z,102356.09
2023-01-23T14:51:20.613Z,102359.03
2023-01-23T14:54:23.229Z,102354.66
2023-01-23T14:57:04.741Z,102353.97
2023-01-23T15:00:27.361Z,102357.31
2023-01-23T15:03:00.135Z,102355.19
2023-01-23T15:05:40.050Z,102353.81
2023-01-23T15:08:29.008Z,102355.97
2023-01-23T15:11:14.237Z,102364.50
2023-01-23T15:14:05.121Z,102364.72
2023-01-23T15:16:44.615Z,102364.09
2023-01-23T15:19:30.672Z,102354.53
2023-01-23T15:22:30.908Z,102363.94
2023-01-23T15:25:27.083Z,102362.06
2023-01-23T15:27:57.679Z,102358.47
2023-01-23T15:30:47.092Z,102363.34
2023-01-23T15:33:26.872Z,102368.28
2023-01-23T15:36:03.952Z,102361.78
2023-01-23T15:38:34.200Z,102367.06
2023-01-23T15:41:08.973Z,102367.81
2023-01-23T15:43:39.078Z,102370.16
2023-01-23T15:46:11.657Z,102369.66
2023-01-23T15:48:40.922Z,102367.94
2023-01-23T15:51:12.783Z,102369.63
2023-01-23T15:53:42.008Z,102377.34
2023-01-23T15:56:24.699Z,102374.09
2023-01-23T15:58:54.890Z,102380.34
2023-01-23T16:01:24.123Z,102383.66
2023-01-23T16:03:53.293Z,102382.38
2023-01-23T16:06:23.715Z,102379.59
2023-01-23T16:09:01.050Z,102378.22
2023-01-23T16:11:37.560Z,102381.16
2023-01-23T16:14:10.684Z,102385.44
2023-01-23T16:16:40.179Z,102382.94
2023-01-23T16:19:09.394Z,102388.13
2023-01-23T16:21:38.543Z,102383.00
2023-01-23T16:24:08.285Z,102379.16
2023-01-23T16:26:44.065Z,102379.97
2023-01-23T16:29:26.497Z,102385.81
2023-01-23T16:31:56.095Z,102382.88
2023-01-23T16:34:25.303Z,102378.53
2023-01-23T16:36:55.934Z,102374.81
2023-01-23T16:39:27.138Z,102384.34
2023-01-23T16:41:56.152Z,102383.28
2023-01-23T16:44:28.065Z,102382.94
2023-01-23T16:46:56.799Z,102382.63
2023-01-23T16:49:26.839Z,102383.88
2023-01-23T16:51:59.112Z,102388.16
2023-01-23T16:54:28.711Z,102397.31
2023-01-23T16:56:59.357Z,102386.53
2023-01-23T16:59:33.001Z,102395.53
2023-01-23T17:02:02.724Z,102390.44
2023-01-23T17:04:32.381Z,102396.59
2023-01-23T17:07:01.487Z,102407.53
2023-01-23T17:09:30.574Z,102402.06
2023-01-23T17:11:59.861Z,102408.47
2023-01-23T17:14:32.106Z,102404.03
2023-01-23T17:17:06.236Z,102404.06
2023-01-23T17:19:39.939Z,102410.66
2023-01-23T17:22:14.382Z,102407.50
2023-01-23T17:24:43.445Z,102409.41
2023-01-23T17:27:12.669Z,102411.31
2023-01-23T17:29:43.293Z,102413.75
2023-01-23T17:32:21.344Z,102407.84
2023-01-23T17:34:50.568Z,102409.69
2023-01-23T17:37:21.890Z,102404.41
2023-01-23T17:39:51.254Z,102407.41
2023-01-23T17:42:22.004Z,102412.47
2023-01-23T17:44:52.644Z,102415.22
2023-01-23T17:47:22.031Z,102410.47
2023-01-23T17:49:54.819Z,102404.22
2023-01-23T17:52:25.042Z,102408.28
2023-01-23T17:54:54.610Z,102405.16
2023-01-23T17:57:24.048Z,102411.38
2023-01-23T17:59:56.452Z,102406.34
2023-01-23T18:02:28.817Z,102411.69
2023-01-23T18:04:59.883Z,102411.50
2023-01-23T18:07:28.619Z,102417.06
2023-01-23T18:09:57.788Z,102419.41
2023-01-23T18:12:31.254Z,102413.09
2023-01-23T18:15:08.465Z,102406.94
2023-01-23T18:17:44.668Z,102412.06
2023-01-23T18:20:19.255Z,102405.06
2023-01-23T18:22:48.792Z,102410.56
2023-01-23T18:25:20.053Z,102403.81
2023-01-23T18:27:54.362Z,102416.47
2023-01-23T18:30:38.867Z,102414.31
2023-01-23T18:33:37.588Z,102409.88
2023-01-23T18:36:31.190Z,102410.03
2023-01-23T18:39:22.180Z,102411.13
2023-01-23T18:42:02.224Z,102425.44
2023-01-23T18:44:34.833Z,102420.63
2023-01-23T18:47:09.719Z,102416.31
2023-01-23T18:49:39.334Z,102413.59
2023-01-23T18:52:11.267Z,102410.81
2023-01-23T18:54:44.524Z,102417.06
2023-01-23T18:57:24.520Z,102415.97
2023-01-23T18:59:58.116Z,102406.84
2023-01-23T19:02:34.259Z,102414.81
2023-01-23T19:05:21.182Z,102406.63
2023-01-23T19:07:50.989Z,102404.03
2023-01-23T19:10:22.089Z,102409.28
2023-01-23T19:13:01.076Z,102413.09
2023-01-23T19:15:31.666Z,102414.34
2023-01-23T19:18:11.088Z,102411.25
2023-01-23T19:20:45.552Z,102423.22
2023-01-23T19:23:25.603Z,102429.28
2023-01-23T19:25:54.599Z,102430.91
2023-01-23T19:28:24.220Z,102427.75
2023-01-23T19:30:54.295Z,102425.38
2023-01-23T19:33:24.810Z,102424.34
2023-01-23T19:35:56.748Z,102422.09
2023-01-23T19:38:25.980Z,102420.84
2023-01-23T19:40:54.894Z,102423.16
2023-01-23T19:43:23.928Z,102428.31
2023-01-23T19:45:52.952Z,102428.16
2023-01-23T19:48:22.152Z,102426.09
2023-01-23T19:50:52.784Z,102427.94
2023-01-23T19:53:22.354Z,102426.25
2023-01-23T19:55:51.156Z,102424.97
2023-01-23T19:58:21.345Z,102435.88
2023-01-23T20:00:50.284Z,102429.59
2023-01-23T20:03:19.459Z,102432.19
2023-01-23T20:05:49.826Z,102430.56
2023-01-23T20:08:20.069Z,102423.03
2023-01-23T20:10:49.174Z,102437.59
2023-01-23T20:13:18.380Z,102434.06
2023-01-23T20:15:47.529Z,102437.69
2023-01-23T20:18:16.659Z,102438.97
2023-01-23T20:20:45.677Z,102431.88
2023-01-23T20:23:14.783Z,102439.34
2023-01-23T20:25:45.282Z,102435.28
2023-01-23T20:28:14.338Z,102426.22
2023-01-23T20:30:43.563Z,102424.69
2023-01-23T20:33:13.194Z,102432.84
2023-01-23T20:35:42.239Z,102436.03
2023-01-23T20:38:11.347Z,102432.28
2023-01-23T20:40:40.128Z,102436.31
2023-01-23T20:43:10.753Z,102435.50
2023-01-23T20:45:47.003Z,102425.72
2023-01-23T20:48:16.449Z,102431.69
2023-01-23T20:50:45.779Z,102437.59
2023-01-23T20:53:34.943Z,102443.56
2023-01-23T20:56:06.197Z,102438.19
2023-01-23T20:58:55.713Z,102433.75
2023-01-23T21:01:28.311Z,102445.97
2023-01-23T21:03:57.860Z,102438.31
2023-01-23T21:06:27.030Z,102441.78
2023-01-23T21:08:58.266Z,102432.53
2023-01-23T21:11:27.605Z,102434.63
2023-01-23T21:13:58.242Z,102440.38
2023-01-23T21:16:27.266Z,102446.03
2023-01-23T21:18:56.505Z,102442.47
2023-01-23T21:21:25.765Z,102443.91
2023-01-23T21:23:55.186Z,102443.25
2023-01-23T21:26:26.174Z,102446.03
2023-01-23T21:28:55.851Z,102444.16
2023-01-23T21:31:28.498Z,102445.25
2023-01-23T21:34:00.254Z,102447.88
2023-01-23T21:36:30.162Z,102450.75
2023-01-23T21:38:59.466Z,102447.59
2023-01-23T21:41:28.638Z,102449.13
2023-01-23T21:43:57.534Z,102454.31
2023-01-23T21:46:28.013Z,102458.97
2023-01-23T21:48:57.362Z,102452.63
2023-01-23T21:51:27.860Z,102447.91
2023-01-23T21:53:57.234Z,102449.66
2023-01-23T21:56:26.759Z,102445.22
2023-01-23T21:58:55.545Z,102444.09
2023-01-23T22:01:35.855Z,102445.03
2023-01-23T22:04:09.237Z,102438.22
2023-01-23T22:06:39.368Z,102441.81
2023-01-23T22:09:08.418Z,102441.13
2023-01-23T22:11:37.859Z,102443.00
2023-01-23T22:14:07.185Z,102439.75
2023-01-23T22:16:47.980Z,102443.25
2023-01-23T22:19:24.262Z,102447.34
2023-01-23T22:21:54.746Z,102442.19
2023-01-23T22:24:23.970Z,102450.31
2023-01-23T22:26:53.145Z,102447.47
2023-01-23T22:29:23.017Z,102446.78
2023-01-23T22:31:52.553Z,102453.94
2023-01-23T22:34:23.164Z,102460.31
2023-01-23T22:36:52.260Z,102449.75
2023-01-23T22:39:21.302Z,102453.69
2023-01-23T22:41:51.357Z,102449.59
2023-01-23T22:44:20.454Z,102454.22
2023-01-23T22:46:51.602Z,102449.38
2023-01-23T22:49:22.453Z,102457.97
2023-01-23T22:51:52.151Z,102458.13
2023-01-23T22:54:21.251Z,102455.06
2023-01-23T22:56:50.363Z,102461.28
2023-01-23T22:59:19.372Z,102465.28
2023-01-23T23:01:47.966Z,102464.78
2023-01-23T23:04:16.968Z,102475.22
2023-01-23T23:06:48.361Z,102476.06
2023-01-23T23:09:17.416Z,102473.03
2023-01-23T23:11:49.085Z,102471.66
2023-01-23T23:14:18.133Z,102475.84
2023-01-23T23:16:46.859Z,102474.59
2023-01-23T23:19:15.982Z,102471.88
2023-01-23T23:21:44.985Z,102473.53
2023-01-23T23:24:15.548Z,102477.69
2023-01-23T23:26:44.707Z,102472.13
2023-01-23T23:29:13.733Z,102465.59
2023-01-23T23:31:42.967Z,102468.38
2023-01-23T23:34:12.256Z,102474.91
2023-01-23T23:36:41.393Z,102471.19
2023-01-23T23:39:10.757Z,102465.13
2023-01-23T23:41:41.372Z,102468.78
2023-01-23T23:44:10.610Z,102471.19
2023-01-23T23:46:39.716Z,102464.97
2023-01-23T23:49:10.196Z,102459.69
2023-01-23T23:51:39.439Z,102465.84
2023-01-23T23:54:08.728Z,102460.63
2023-01-23T23:56:37.976Z,102462.97
2023-01-23T23:59:08.681Z,102463.19
